createdAt,value
2022-12-05T00:01:31.992Z,101241.13
2022-12-05T00:04:00.626Z,101250.59
2022-12-05T00:06:28.938Z,101237.59
2022-12-05T00:08:56.372Z,101240.78
2022-12-05T00:11:25.578Z,101243.22
2022-12-05T00:13:54.178Z,101233.25
2022-12-05T00:16:22.719Z,101236.69
2022-12-05T00:18:53.437Z,101228.41
2022-12-05T00:21:25.178Z,101231.78
2022-12-05T00:23:53.525Z,101232.97
2022-12-05T00:26:20.552Z,101228.72
2022-12-05T00:28:47.498Z,101238.47
2022-12-05T00:31:18.520Z,101241.19
2022-12-05T00:33:45.623Z,101238.47
2022-12-05T00:36:14.388Z,101242.03
2022-12-05T00:38:42.151Z,101233.50
2022-12-05T00:41:11.738Z,101236.66
2022-12-05T00:43:39.240Z,101233.22
2022-12-05T00:46:09.725Z,101224.94
2022-12-05T00:48:36.640Z,101216.88
2022-12-05T00:51:12.982Z,101215.34
2022-12-05T00:53:40.064Z,101220.44
2022-12-05T00:56:12.040Z,101218.06
2022-12-05T00:58:38.978Z,101217.13
2022-12-05T01:01:14.414Z,101223.84
2022-12-05T01:03:41.438Z,101227.44
2022-12-05T01:06:08.324Z,101225.66
2022-12-05T01:08:35.537Z,101217.78
2022-12-05T01:11:03.142Z,101214.13
2022-12-05T01:13:29.792Z,101212.31
2022-12-05T01:15:56.769Z,101211.75
2022-12-05T01:18:23.898Z,101212.84
2022-12-05T01:20:51.812Z,101216.16
2022-12-05T01:23:18.690Z,101217.81
2022-12-05T01:25:48.236Z,101219.69
2022-12-05T01:28:15.525Z,101214.38
2022-12-05T01:30:44.241Z,101219.56
2022-12-05T01:33:11.439Z,101211.81
2022-12-05T01:35:39.332Z,101207.84
2022-12-05T01:38:07.299Z,101213.84
2022-12-05T01:40:36.032Z,101214.41
2022-12-05T01:43:03.685Z,101202.59
2022-12-05T01:45:48.487Z,101199.06
2022-12-05T01:48:21.200Z,101199.75
2022-12-05T01:50:48.692Z,101205.56
2022-12-05T01:53:16.707Z,101199.81
2022-12-05T01:55:44.236Z,101200.69
2022-12-05T01:58:11.298Z,101201.41
2022-12-05T02:00:39.555Z,101196.34
2022-12-05T02:03:12.978Z,101202.47
2022-12-05T02:05:39.681Z,101198.28
2022-12-05T02:08:08.555Z,101193.84
2022-12-05T02:10:39.276Z,101200.69
2022-12-05T02:13:17.927Z,101206.06
2022-12-05T02:15:59.742Z,101204.09
2022-12-05T02:18:37.638Z,101208.09
2022-12-05T02:21:13.559Z,101209.09
2022-12-05T02:24:12.027Z,101208.50
2022-12-05T02:26:46.334Z,101202.81
2022-12-05T02:29:31.743Z,101196.97
2022-12-05T02:32:07.792Z,101205.72
2022-12-05T02:34:42.660Z,101203.50
2022-12-05T02:37:18.031Z,101201.56
2022-12-05T02:39:53.439Z,101209.22
2022-12-05T02:42:25.943Z,101194.53
2022-12-05T02:44:56.179Z,101196.47
2022-12-05T02:47:26.565Z,101197.16
2022-12-05T02:49:54.091Z,101200.78
2022-12-05T02:52:21.998Z,101204.88
2022-12-05T02:54:49.826Z,101200.28
2022-12-05T02:57:16.893Z,101199.81
2022-12-05T02:59:44.620Z,101187.50
2022-12-05T03:02:26.977Z,101197.63
2022-12-05T03:04:56.238Z,101191.94
2022-12-05T03:07:23.813Z,101190.94
2022-12-05T03:09:57.126Z,101191.63
2022-12-05T03:12:30.274Z,101195.16
2022-12-05T03:15:04.910Z,101198.81
2022-12-05T03:17:41.948Z,101204.00
2022-12-05T03:20:32.662Z,101193.59
2022-12-05T03:23:13.110Z,101203.84
2022-12-05T03:25:50.832Z,101204.97
2022-12-05T03:28:25.269Z,101196.31
2022-12-05T03:30:54.237Z,101197.28
2022-12-05T03:33:24.200Z,101199.78
2022-12-05T03:36:03.603Z,101193.59
2022-12-05T03:38:34.717Z,101194.66
2022-12-05T03:41:13.302Z,101188.50
2022-12-05T03:43:53.263Z,101185.03
2022-12-05T03:46:27.906Z,101180.66
2022-12-05T03:49:05.152Z,101184.97
2022-12-05T03:51:36.135Z,101187.63
2022-12-05T03:54:11.056Z,101189.84
2022-12-05T03:56:43.098Z,101188.03
2022-12-05T03:59:38.460Z,101184.88
2022-12-05T04:02:13.016Z,101175.31
2022-12-05T04:04:46.567Z,101171.22
2022-12-05T04:07:14.124Z,101181.53
2022-12-05T04:09:56.170Z,101187.84
2022-12-05T04:12:27.667Z,101179.97
2022-12-05T04:15:00.148Z,101174.69
2022-12-05T04:17:32.394Z,101181.53
2022-12-05T04:20:23.699Z,101187.47
2022-12-05T04:22:53.517Z,101176.22
2022-12-05T04:25:35.441Z,101178.09
2022-12-05T04:28:25.173Z,101170.81
2022-12-05T04:31:11.804Z,101178.28
2022-12-05T04:33:57.311Z,101172.94
2022-12-05T04:36:54.980Z,101167.03
2022-12-05T04:39:36.723Z,101175.72
2022-12-05T04:42:12.417Z,101171.09
2022-12-05T04:45:00.212Z,101168.38
2022-12-05T04:47:30.794Z,101166.69
2022-12-05T04:49:59.064Z,101166.94
2022-12-05T04:52:29.034Z,101169.56
2022-12-05T04:55:05.508Z,101169.81
2022-12-05T04:57:36.880Z,101172.88
2022-12-05T05:00:04.998Z,101183.28
2022-12-05T05:02:43.661Z,101172.72
2022-12-05T05:05:14.091Z,101175.53
2022-12-05T05:07:45.813Z,101173.16
2022-12-05T05:10:16.307Z,101177.22
2022-12-05T05:12:42.939Z,101177.44
2022-12-05T05:15:09.749Z,101174.19
2022-12-05T05:17:36.405Z,101171.16
2022-12-05T05:20:22.560Z,101174.47
2022-12-05T05:22:50.676Z,101178.13
2022-12-05T05:25:17.981Z,101171.22
2022-12-05T05:27:51.062Z,101167.03
2022-12-05T05:30:19.326Z,101170.44
2022-12-05T05:32:46.097Z,101172.16
2022-12-05T05:35:13.312Z,101175.50
2022-12-05T05:37:40.527Z,101176.41
2022-12-05T05:40:11.075Z,101172.25
2022-12-05T05:42:42.990Z,101171.38
2022-12-05T05:45:10.606Z,101180.19
2022-12-05T05:47:37.189Z,101180.06
2022-12-05T05:50:04.484Z,101182.50
2022-12-05T05:52:33.636Z,101173.81
2022-12-05T05:55:01.016Z,101173.13
2022-12-05T05:57:27.623Z,101172.03
2022-12-05T05:59:54.288Z,101173.78
2022-12-05T06:02:21.011Z,101173.25
2022-12-05T06:04:47.777Z,101179.75
2022-12-05T06:07:14.564Z,101174.56
2022-12-05T06:09:41.370Z,101172.44
2022-12-05T06:12:09.262Z,101176.03
2022-12-05T06:14:35.929Z,101179.59
2022-12-05T06:17:02.619Z,101181.31
2022-12-05T06:19:32.449Z,101179.38
2022-12-05T06:21:59.077Z,101180.91
2022-12-05T06:24:25.698Z,101175.38
2022-12-05T06:26:52.318Z,101183.59
2022-12-05T06:29:21.669Z,101184.63
2022-12-05T06:31:51.915Z,101184.84
2022-12-05T06:34:18.506Z,101189.47
2022-12-05T06:36:45.123Z,101183.84
2022-12-05T06:39:11.708Z,101184.81
2022-12-05T06:41:38.312Z,101191.13
2022-12-05T06:44:04.953Z,101191.91
2022-12-05T06:46:31.615Z,101192.13
2022-12-05T06:48:59.026Z,101197.91
2022-12-05T06:51:25.753Z,101197.28
2022-12-05T06:53:52.396Z,101205.03
2022-12-05T06:56:20.050Z,101205.66
2022-12-05T06:58:50.863Z,101200.63
2022-12-05T07:01:38.623Z,101203.03
2022-12-05T07:04:08.162Z,101204.63
2022-12-05T07:06:35.509Z,101206.72
2022-12-05T07:09:03.337Z,101211.94
2022-12-05T07:11:30.025Z,101214.53
2022-12-05T07:13:56.842Z,101218.03
2022-12-05T07:16:24.106Z,101215.03
2022-12-05T07:18:51.135Z,101211.06
2022-12-05T07:21:17.855Z,101210.19
2022-12-05T07:23:45.858Z,101212.75
2022-12-05T07:26:15.272Z,101216.44
2022-12-05T07:28:42.050Z,101214.09
2022-12-05T07:31:11.271Z,101216.56
2022-12-05T07:33:38.431Z,101213.16
2022-12-05T07:36:10.914Z,101218.84
2022-12-05T07:38:37.686Z,101215.19
2022-12-05T07:41:14.137Z,101216.31
2022-12-05T07:43:41.810Z,101221.34
2022-12-05T07:46:11.437Z,101215.63
2022-12-05T07:48:38.741Z,101211.75
2022-12-05T07:51:06.799Z,101210.06
2022-12-05T07:53:33.731Z,101211.38
2022-12-05T07:56:01.472Z,101209.75
2022-12-05T07:58:29.405Z,101205.63
2022-12-05T08:00:56.900Z,101212.63
2022-12-05T08:03:23.646Z,101212.91
2022-12-05T08:05:50.282Z,101221.06
2022-12-05T08:08:16.943Z,101218.41
2022-12-05T08:10:43.759Z,101215.59
2022-12-05T08:13:10.458Z,101228.78
2022-12-05T08:15:37.077Z,101227.31
2022-12-05T08:18:03.829Z,101224.03
2022-12-05T08:20:30.680Z,101216.25
2022-12-05T08:22:57.868Z,101218.47
2022-12-05T08:25:24.553Z,101215.56
2022-12-05T08:27:51.177Z,101214.91
2022-12-05T08:30:18.206Z,101211.34
2022-12-05T08:32:44.805Z,101216.66
2022-12-05T08:35:11.456Z,101218.84
2022-12-05T08:37:38.255Z,101215.81
2022-12-05T08:40:05.606Z,101220.91
2022-12-05T08:42:32.283Z,101220.97
2022-12-05T08:44:59.140Z,101220.03
2022-12-05T08:47:26.011Z,101222.16
2022-12-05T08:49:52.596Z,101224.56
2022-12-05T08:52:19.196Z,101219.78
2022-12-05T08:54:45.798Z,101215.84
2022-12-05T08:57:12.444Z,101223.63
2022-12-05T08:59:39.039Z,101224.53
2022-12-05T09:02:05.995Z,101219.38
2022-12-05T09:04:32.700Z,101219.09
2022-12-05T09:07:02.598Z,101217.63
2022-12-05T09:09:29.476Z,101221.22
2022-12-05T09:11:57.834Z,101218.59
2022-12-05T09:14:24.497Z,101223.06
2022-12-05T09:16:51.108Z,101219.94
2022-12-05T09:19:24.961Z,101217.31
2022-12-05T09:21:51.648Z,101216.31
2022-12-05T09:24:18.257Z,101220.72
2022-12-05T09:26:45.101Z,101213.94
2022-12-05T09:29:16.852Z,101211.16
2022-12-05T09:31:45.280Z,101212.94
2022-12-05T09:34:14.087Z,101206.84
2022-12-05T09:36:41.112Z,101200.28
2022-12-05T09:39:08.293Z,101196.31
2022-12-05T09:42:03.000Z,101194.88
2022-12-05T09:44:46.265Z,101195.06
2022-12-05T09:47:28.291Z,101199.88
2022-12-05T09:49:58.206Z,101196.69
2022-12-05T09:52:29.905Z,101194.38
2022-12-05T09:55:01.879Z,101196.31
2022-12-05T09:57:37.318Z,101187.59
2022-12-05T10:00:05.989Z,101192.13
2022-12-05T10:02:41.354Z,101195.78
2022-12-05T10:05:14.230Z,101188.22
2022-12-05T10:07:46.911Z,101186.34
2022-12-05T10:10:50.831Z,101178.38
2022-12-05T10:13:32.573Z,101185.28
2022-12-05T10:16:27.619Z,101184.75
2022-12-05T10:19:00.275Z,101181.88
2022-12-05T10:21:59.137Z,101188.88
2022-12-05T10:24:36.658Z,101182.28
2022-12-05T10:27:06.486Z,101181.34
2022-12-05T10:30:09.492Z,101178.53
2022-12-05T10:32:40.696Z,101179.47
2022-12-05T10:35:17.926Z,101180.34
2022-12-05T10:37:48.397Z,101181.06
2022-12-05T10:40:15.151Z,101173.56
2022-12-05T10:42:42.042Z,101178.47
2022-12-05T10:45:15.541Z,101177.84
2022-12-05T10:47:42.178Z,101175.97
2022-12-05T10:50:33.164Z,101175.97
2022-12-05T10:53:01.753Z,101180.31
2022-12-05T10:55:32.827Z,101173.94
2022-12-05T10:58:17.539Z,101174.31
2022-12-05T11:00:46.870Z,101169.88
2022-12-05T11:03:26.700Z,101165.44
2022-12-05T11:05:55.033Z,101168.22
2022-12-05T11:08:55.809Z,101162.88
2022-12-05T11:11:23.788Z,101159.59
2022-12-05T11:14:07.545Z,101160.47
2022-12-05T11:16:37.208Z,101158.81
2022-12-05T11:19:23.606Z,101161.22
2022-12-05T11:21:50.888Z,101157.22
2022-12-05T11:24:23.283Z,101159.84
2022-12-05T11:26:50.725Z,101145.91
2022-12-05T11:30:01.976Z,101149.34
2022-12-05T11:32:33.308Z,101146.41
2022-12-05T11:35:12.032Z,101139.66
2022-12-05T11:37:45.108Z,101137.81
2022-12-05T11:40:17.815Z,101142.13
2022-12-05T11:43:09.060Z,101127.28
2022-12-05T11:45:51.397Z,101123.09
2022-12-05T11:48:39.348Z,101118.56
2022-12-05T11:51:40.538Z,101118.66
2022-12-05T11:54:56.757Z,101113.41
2022-12-05T11:57:53.626Z,101119.56
2022-12-05T12:00:31.091Z,101115.00
2022-12-05T12:03:22.800Z,101110.16
2022-12-05T12:05:55.665Z,101115.28
2022-12-05T12:08:27.731Z,101116.78
2022-12-05T12:11:13.069Z,101123.13
2022-12-05T12:14:04.541Z,101116.22
2022-12-05T12:16:42.983Z,101112.53
2022-12-05T12:19:41.957Z,101118.47
2022-12-05T12:22:21.647Z,101110.81
2022-12-05T12:25:02.694Z,101111.16
2022-12-05T12:27:49.947Z,101122.28
2022-12-05T12:30:29.192Z,101118.72
2022-12-05T12:33:06.785Z,101125.53
2022-12-05T12:35:41.604Z,101121.91
2022-12-05T12:38:50.984Z,101126.31
2022-12-05T12:41:36.769Z,101124.84
2022-12-05T12:44:33.998Z,101118.63
2022-12-05T12:47:02.050Z,101117.78
2022-12-05T12:49:40.844Z,101116.09
2022-12-05T12:52:16.234Z,101122.13
2022-12-05T12:55:14.984Z,101118.50
2022-12-05T12:58:04.955Z,101117.88
2022-12-05T13:00:34.549Z,101115.06
2022-12-05T13:03:30.625Z,101106.34
2022-12-05T13:06:01.277Z,101106.34
2022-12-05T13:08:35.791Z,101098.72
2022-12-05T13:11:05.602Z,101097.03
2022-12-05T13:13:36.721Z,101096.13
2022-12-05T13:16:07.676Z,101088.38
2022-12-05T13:18:35.498Z,101097.25
2022-12-05T13:21:07.134Z,101101.03
2022-12-05T13:23:44.614Z,101093.75
2022-12-05T13:26:12.112Z,101103.13
2022-12-05T13:28:55.888Z,101095.13
2022-12-05T13:31:36.348Z,101100.69
2022-12-05T13:34:02.987Z,101100.53
2022-12-05T13:36:57.192Z,101107.97
2022-12-05T13:39:42.411Z,101098.72
2022-12-05T13:42:24.525Z,101110.75
2022-12-05T13:44:57.527Z,101100.69
2022-12-05T13:47:28.986Z,101099.56
2022-12-05T13:50:16.758Z,101102.94
2022-12-05T13:52:48.777Z,101097.41
2022-12-05T13:55:35.961Z,101093.66
2022-12-05T13:58:18.582Z,101101.25
2022-12-05T14:00:45.345Z,101091.81
2022-12-05T14:03:22.098Z,101093.56
2022-12-05T14:05:50.902Z,101094.69
2022-12-05T14:08:35.617Z,101091.22
2022-12-05T14:11:02.446Z,101094.97
2022-12-05T14:13:30.198Z,101082.44
2022-12-05T14:16:22.658Z,101091.84
2022-12-05T14:19:06.515Z,101080.47
2022-12-05T14:21:42.044Z,101084.22
2022-12-05T14:24:33.055Z,101084.81
2022-12-05T14:27:15.584Z,101086.69
2022-12-05T14:30:01.247Z,101080.78
2022-12-05T14:32:37.041Z,101089.41
2022-12-05T14:35:20.873Z,101084.94
2022-12-05T14:37:59.477Z,101084.78
2022-12-05T14:40:41.061Z,101078.72
2022-12-05T14:43:29.181Z,101086.81
2022-12-05T14:46:02.511Z,101087.47
2022-12-05T14:48:32.493Z,101088.13
2022-12-05T14:51:00.230Z,101096.56
2022-12-05T14:53:43.085Z,101089.41
2022-12-05T14:56:17.392Z,101095.16
2022-12-05T14:59:04.490Z,101104.56
2022-12-05T15:01:43.292Z,101094.44
2022-12-05T15:04:31.300Z,101096.25
2022-12-05T15:07:00.872Z,101095.25
2022-12-05T15:09:59.532Z,101093.41
2022-12-05T15:12:29.832Z,101093.16
2022-12-05T15:15:06.479Z,101091.75
2022-12-05T15:17:39.924Z,101094.72
2022-12-05T15:20:15.396Z,101086.56
2022-12-05T15:22:42.544Z,101093.63
2022-12-05T15:25:35.515Z,101098.72
2022-12-05T15:28:05.417Z,101106.38
2022-12-05T15:30:35.469Z,101105.47
2022-12-05T15:33:02.806Z,101096.09
2022-12-05T15:35:32.474Z,101098.59
2022-12-05T15:38:09.406Z,101096.25
2022-12-05T15:40:39.488Z,101102.16
2022-12-05T15:43:27.673Z,101089.25
2022-12-05T15:46:24.199Z,101095.66
2022-12-05T15:48:52.578Z,101099.66
2022-12-05T15:51:20.347Z,101097.09
2022-12-05T15:53:59.311Z,101096.03
2022-12-05T15:57:07.361Z,101093.44
2022-12-05T15:59:45.897Z,101090.78
2022-12-05T16:02:25.795Z,101092.59
2022-12-05T16:04:57.622Z,101092.44
2022-12-05T16:07:27.232Z,101101.91
2022-12-05T16:09:57.368Z,101099.19
2022-12-05T16:12:34.862Z,101091.03
2022-12-05T16:15:04.437Z,101093.38
2022-12-05T16:17:42.894Z,101096.00
2022-12-05T16:20:22.426Z,101093.31
2022-12-05T16:22:51.050Z,101096.69
2022-12-05T16:25:22.275Z,101097.63
2022-12-05T16:28:00.536Z,101092.44
2022-12-05T16:30:28.246Z,101090.66
2022-12-05T16:33:00.651Z,101088.91
2022-12-05T16:35:30.265Z,101089.09
2022-12-05T16:38:24.741Z,101091.59
2022-12-05T16:41:02.690Z,101088.94
2022-12-05T16:43:32.570Z,101087.25
2022-12-05T16:46:08.060Z,101085.50
2022-12-05T16:48:35.792Z,101087.34
2022-12-05T16:51:11.360Z,101086.59
2022-12-05T16:53:39.516Z,101087.34
2022-12-05T16:56:07.609Z,101087.31
2022-12-05T16:58:35.454Z,101086.38
2022-12-05T17:01:05.032Z,101078.38
2022-12-05T17:03:34.801Z,101080.47
2022-12-05T17:06:02.417Z,101082.88
2022-12-05T17:08:29.480Z,101075.88
2022-12-05T17:10:56.105Z,101078.47
2022-12-05T17:13:22.754Z,101074.97
2022-12-05T17:15:49.492Z,101073.25
2022-12-05T17:18:18.074Z,101070.66
2022-12-05T17:20:49.248Z,101075.88
2022-12-05T17:23:16.009Z,101073.34
2022-12-05T17:25:53.566Z,101070.75
2022-12-05T17:28:20.734Z,101074.28
2022-12-05T17:30:47.615Z,101066.50
2022-12-05T17:33:16.187Z,101069.94
2022-12-05T17:35:43.136Z,101076.09
2022-12-05T17:38:10.767Z,101072.66
2022-12-05T17:40:38.202Z,101066.50
2022-12-05T17:43:05.351Z,101073.44
2022-12-05T17:45:32.245Z,101074.31
2022-12-05T17:47:58.910Z,101072.53
2022-12-05T17:50:26.105Z,101066.50
2022-12-05T17:52:55.835Z,101072.53
2022-12-05T17:55:30.954Z,101062.13
2022-12-05T17:57:57.597Z,101065.69
2022-12-05T18:00:24.942Z,101064.06
2022-12-05T18:02:52.652Z,101066.78
2022-12-05T18:05:19.652Z,101066.97
2022-12-05T18:07:47.156Z,101061.84
2022-12-05T18:10:17.634Z,101061.91
2022-12-05T18:12:44.277Z,101067.03
2022-12-05T18:15:11.309Z,101069.59
2022-12-05T18:17:38.222Z,101073.97
2022-12-05T18:20:07.100Z,101069.72
2022-12-05T18:22:37.218Z,101068.91
2022-12-05T18:25:05.495Z,101078.44
2022-12-05T18:27:36.841Z,101071.25
2022-12-05T18:30:04.865Z,101072.03
2022-12-05T18:32:31.504Z,101066.84
2022-12-05T18:37:39.347Z,101069.50
2022-12-05T18:40:07.729Z,101072.13
2022-12-05T18:42:34.404Z,101076.47
2022-12-05T18:45:01.924Z,101079.84
2022-12-05T18:47:28.680Z,101085.91
2022-12-05T18:49:55.283Z,101082.44
2022-12-05T18:52:21.912Z,101083.31
2022-12-05T18:54:57.843Z,101081.56
2022-12-05T18:57:30.691Z,101085.03
2022-12-05T18:59:57.320Z,101081.56
2022-12-05T19:02:24.661Z,101078.09
2022-12-05T19:04:51.396Z,101077.22
2022-12-05T19:07:18.008Z,101078.13
2022-12-05T19:09:44.596Z,101078.97
2022-12-05T19:12:11.209Z,101087.59
2022-12-05T19:14:38.030Z,101083.31
2022-12-05T19:17:04.711Z,101086.72
2022-12-05T19:19:31.410Z,101081.53
2022-12-05T19:21:59.711Z,101078.91
2022-12-05T19:24:26.445Z,101072.78
2022-12-05T19:26:53.072Z,101081.50
2022-12-05T19:29:19.827Z,101078.91
2022-12-05T19:31:46.939Z,101084.13
2022-12-05T19:34:13.723Z,101078.84
2022-12-05T19:36:42.959Z,101085.78
2022-12-05T19:39:10.831Z,101082.28
2022-12-05T19:41:37.854Z,101081.41
2022-12-05T19:44:05.148Z,101078.81
2022-12-05T19:46:33.173Z,101079.69
2022-12-05T19:49:03.449Z,101076.19
2022-12-05T19:51:31.238Z,101083.09
2022-12-05T19:54:02.569Z,101079.59
2022-12-05T19:56:30.657Z,101071.84
2022-12-05T19:58:59.038Z,101076.19
2022-12-05T20:01:38.645Z,101074.41
2022-12-05T20:04:10.749Z,101073.56
2022-12-05T20:06:55.760Z,101080.38
2022-12-05T20:09:22.862Z,101074.28
2022-12-05T20:11:54.980Z,101079.53
2022-12-05T20:14:23.271Z,101076.91
2022-12-05T20:16:49.925Z,101067.34
2022-12-05T20:19:16.742Z,101069.94
2022-12-05T20:21:44.493Z,101068.22
2022-12-05T20:24:11.615Z,101069.09
2022-12-05T20:26:41.263Z,101072.56
2022-12-05T20:29:07.880Z,101069.81
2022-12-05T20:31:39.441Z,101066.38
2022-12-05T20:34:07.353Z,101069.13
2022-12-05T20:36:34.726Z,101069.97
2022-12-05T20:39:08.063Z,101069.06
2022-12-05T20:41:34.798Z,101061.25
2022-12-05T20:44:03.384Z,101058.72
2022-12-05T20:46:31.767Z,101045.09
2022-12-05T20:48:58.550Z,101041.63
2022-12-05T20:51:30.127Z,101039.03
2022-12-05T20:53:58.437Z,101047.63
2022-12-05T20:56:28.180Z,101041.50
2022-12-05T20:58:56.913Z,101037.19
2022-12-05T21:01:24.756Z,101031.09
2022-12-05T21:03:52.496Z,101033.72
2022-12-05T21:06:28.674Z,101031.19
2022-12-05T21:08:56.378Z,101030.31
2022-12-05T21:11:23.690Z,101035.53
2022-12-05T21:13:50.670Z,101039.88
2022-12-05T21:16:21.449Z,101032.91
2022-12-05T21:18:49.056Z,101042.47
2022-12-05T21:21:21.140Z,101035.53
2022-12-05T21:23:53.259Z,101042.47
2022-12-05T21:26:21.996Z,101040.75
2022-12-05T21:28:49.024Z,101041.63
2022-12-05T21:31:23.975Z,101037.34
2022-12-05T21:33:52.921Z,101033.81
2022-12-05T21:36:20.533Z,101030.34
2022-12-05T21:38:50.849Z,101035.63
2022-12-05T21:41:22.235Z,101029.63
2022-12-05T21:43:54.074Z,101037.59
2022-12-05T21:46:21.747Z,101033.22
2022-12-05T21:48:48.550Z,101042.66
2022-12-05T21:51:15.386Z,101038.31
2022-12-05T21:53:42.193Z,101036.56
2022-12-05T21:56:17.418Z,101045.28
2022-12-05T21:58:45.150Z,101042.66
2022-12-05T22:01:17.408Z,101039.19
2022-12-05T22:03:44.930Z,101036.63
2022-12-05T22:06:17.144Z,101030.59
2022-12-05T22:08:43.773Z,101024.47
2022-12-05T22:11:12.842Z,101030.59
2022-12-05T22:13:40.338Z,101027.09
2022-12-05T22:16:07.880Z,101030.56
2022-12-05T22:18:35.099Z,101028.88
2022-12-05T22:21:11.476Z,101021.94
2022-12-05T22:23:38.066Z,101022.81
2022-12-05T22:26:07.000Z,101021.97
2022-12-05T22:28:34.326Z,101024.53
2022-12-05T22:31:02.382Z,101021.06
2022-12-05T22:33:29.341Z,101024.53
2022-12-05T22:35:58.277Z,101020.22
2022-12-05T22:38:26.303Z,101015.91
2022-12-05T22:40:54.517Z,101022.00
2022-12-05T22:43:21.430Z,101012.41
2022-12-05T22:45:48.169Z,101015.91
2022-12-05T22:48:14.792Z,101010.66
2022-12-05T22:50:48.867Z,101004.56
2022-12-05T22:53:18.026Z,101001.97
2022-12-05T22:55:44.613Z,101001.97
2022-12-05T22:58:11.367Z,100996.78
2022-12-05T23:00:38.329Z,101001.13
2022-12-05T23:03:05.363Z,100998.53
2022-12-05T23:05:32.172Z,100993.31
2022-12-05T23:07:58.888Z,100992.47
2022-12-05T23:10:25.770Z,100985.56
2022-12-05T23:12:52.338Z,100989.03
2022-12-05T23:15:21.899Z,100988.19
2022-12-05T23:17:48.999Z,100978.56
2022-12-05T23:20:16.118Z,100971.66
2022-12-05T23:22:43.746Z,100969.94
2022-12-05T23:25:10.392Z,100971.69
2022-12-05T23:27:37.046Z,100971.69
2022-12-05T23:30:05.159Z,100970.00
2022-12-05T23:32:31.746Z,100970.00
2022-12-05T23:34:58.362Z,100967.41
2022-12-05T23:37:25.123Z,100968.19
2022-12-05T23:39:51.788Z,100966.47
2022-12-05T23:42:18.457Z,100955.19
2022-12-05T23:44:45.205Z,100955.19
2022-12-05T23:47:11.927Z,100955.19
2022-12-05T23:49:38.655Z,100957.81
2022-12-05T23:52:05.317Z,100956.91
2022-12-05T23:54:31.969Z,100955.47
2022-12-05T23:56:58.589Z,100954.44
2022-12-05T23:59:25.175Z,100958.78
